Time;durP1;ratioP1;P1;durP2;ratioP2;P2;SDS_P1;SDS_P2;PMS_P1;PMS_P2;Temp;Humidity;BMP_temperature;BMP_pressure;BME280_temperature;BME280_humidity;BME280_pressure;Samples;Min_cycle;Max_cycle;Signal;HPM_P1;HPM_P2
2024/04/07 00:02:12;;;;;;;1.27;1.17;;;;;;;;;;5070176;28;20225;-50
2024/04/07 00:04:38;;;;;;;1.40;1.38;;;;;;;;;;5070900;28;20572;-50
2024/04/07 00:07:06;;;;;;;1.65;1.00;;;;;;;;;;5070762;28;20205;-49
2024/04/07 00:09:33;;;;;;;1.15;1.10;;;;;;;;;;5070644;28;20211;-51
2024/04/07 00:12:02;;;;;;;0.68;0.68;;;;;;;;;;5086613;28;20216;-55
2024/04/07 00:14:29;;;;;;;1.33;1.23;;;;;;;;;;5091045;28;20647;-55
2024/04/07 00:16:56;;;;;;;1.15;1.15;;;;;;;;;;5083815;28;20211;-53
2024/04/07 00:19:23;;;;;;;0.90;0.90;;;;;;;;;;5079086;28;20668;-49
2024/04/07 00:21:51;;;;;;;1.35;1.25;;;;;;;;;;5079127;28;20224;-51
2024/04/07 00:24:17;;;;;;;0.98;0.98;;;;;;;;;;5079317;28;20205;-54
2024/04/07 00:26:45;;;;;;;1.55;1.10;;;;;;;;;;5078394;28;20227;-56
2024/04/07 00:29:13;;;;;;;1.27;1.15;;;;;;;;;;5082304;28;20651;-56
2024/04/07 00:31:40;;;;;;;1.30;1.30;;;;;;;;;;5081809;28;20228;-56
2024/04/07 00:34:07;;;;;;;0.80;0.80;;;;;;;;;;5082733;28;20233;-56
2024/04/07 00:36:35;;;;;;;0.95;0.95;;;;;;;;;;5094315;28;20212;-55
2024/04/07 00:39:01;;;;;;;1.35;0.98;;;;;;;;;;5085987;28;20211;-50
2024/04/07 00:41:29;;;;;;;0.93;0.93;;;;;;;;;;5077156;28;20281;-56
2024/04/07 00:43:55;;;;;;;2.45;1.25;;;;;;;;;;5094064;28;20204;-55
2024/04/07 00:46:24;;;;;;;1.00;1.00;;;;;;;;;;5085515;28;20216;-54
2024/04/07 00:48:51;;;;;;;0.93;0.93;;;;;;;;;;5086018;28;20204;-55
2024/04/07 00:51:19;;;;;;;0.93;0.93;;;;;;;;;;5093878;28;20306;-54
2024/04/07 00:53:46;;;;;;;0.95;0.95;;;;;;;;;;5085841;28;20585;-56
2024/04/07 00:56:13;;;;;;;0.80;0.80;;;;;;;;;;5092418;28;20291;-50
2024/04/07 00:58:40;;;;;;;1.15;1.05;;;;;;;;;;5080111;28;20220;-56
2024/04/07 01:01:08;;;;;;;1.95;1.35;;;;;;;;;;5081969;28;20666;-56
2024/04/07 01:03:35;;;;;;;1.10;1.10;;;;;;;;;;5093616;28;20234;-53
2024/04/07 01:06:03;;;;;;;1.63;1.52;;;;;;;;;;5093507;28;20206;-53
2024/04/07 01:08:30;;;;;;;1.77;1.10;;;;;;;;;;5057233;28;20266;-52
2024/04/07 01:10:57;;;;;;;1.98;1.20;;;;;;;;;;5080586;28;20224;-52
2024/04/07 01:13:27;;;;;;;1.10;1.10;;;;;;;;;;5090565;28;20653;-50
2024/04/07 01:15:55;;;;;;;1.10;1.00;;;;;;;;;;5088478;28;20265;-50
2024/04/07 01:18:21;;;;;;;1.27;1.17;;;;;;;;;;5093392;28;20212;-52
2024/04/07 01:20:50;;;;;;;1.45;1.10;;;;;;;;;;5086934;28;20201;-50
2024/04/07 01:23:18;;;;;;;1.23;1.13;;;;;;;;;;5074584;28;20239;-53
2024/04/07 01:25:46;;;;;;;1.30;1.20;;;;;;;;;;5093143;28;20208;-51
2024/04/07 01:28:13;;;;;;;1.00;1.00;;;;;;;;;;5086234;28;20291;-52
2024/04/07 01:30:42;;;;;;;1.15;1.00;;;;;;;;;;5084483;28;20219;-50
2024/04/07 01:33:11;;;;;;;1.23;1.13;;;;;;;;;;5084654;28;20234;-56
2024/04/07 01:35:38;;;;;;;0.90;0.90;;;;;;;;;;5080076;28;20291;-55
2024/04/07 01:38:05;;;;;;;1.70;1.15;;;;;;;;;;5080868;28;20290;-56
2024/04/07 01:40:34;;;;;;;0.82;0.82;;;;;;;;;;5072512;28;20205;-56
2024/04/07 01:43:01;;;;;;;1.42;1.25;;;;;;;;;;5072538;28;20870;-52
2024/04/07 01:45:28;;;;;;;0.95;0.95;;;;;;;;;;5080867;28;20652;-51
2024/04/07 01:47:54;;;;;;;1.48;1.27;;;;;;;;;;5087839;28;20204;-55
2024/04/07 01:50:23;;;;;;;1.10;1.10;;;;;;;;;;5073426;28;20219;-54
2024/04/07 01:52:49;;;;;;;1.05;0.90;;;;;;;;;;5072604;28;20220;-53
2024/04/07 01:55:17;;;;;;;0.90;0.90;;;;;;;;;;5081909;28;20205;-56
2024/04/07 01:57:44;;;;;;;1.33;1.23;;;;;;;;;;5091440;28;20204;-53
2024/04/07 02:00:13;;;;;;;1.20;1.10;;;;;;;;;;5092429;28;20212;-52
2024/04/07 02:02:39;;;;;;;1.10;1.00;;;;;;;;;;5078901;28;20275;-55
2024/04/07 02:05:07;;;;;;;2.72;1.23;;;;;;;;;;5071728;28;20201;-51
2024/04/07 02:07:34;;;;;;;0.95;0.95;;;;;;;;;;5072048;28;20652;-56
2024/04/07 02:10:02;;;;;;;1.50;1.40;;;;;;;;;;5080111;28;20215;-54
2024/04/07 02:12:29;;;;;;;1.25;1.02;;;;;;;;;;5089069;28;20278;-51
2024/04/07 02:14:57;;;;;;;1.20;1.10;;;;;;;;;;5087488;28;20215;-54
2024/04/07 02:17:25;;;;;;;0.90;0.90;;;;;;;;;;5084131;28;20261;-52
2024/04/07 02:19:52;;;;;;;0.90;0.90;;;;;;;;;;5085669;28;20650;-53
2024/04/07 02:22:19;;;;;;;1.00;1.00;;;;;;;;;;5071446;28;20239;-54
2024/04/07 02:24:47;;;;;;;1.00;1.00;;;;;;;;;;5077695;28;20230;-53
2024/04/07 02:27:13;;;;;;;1.23;1.13;;;;;;;;;;5082342;28;20228;-51
2024/04/07 02:29:40;;;;;;;1.40;1.30;;;;;;;;;;5076593;28;20208;-51
2024/04/07 02:32:08;;;;;;;1.52;1.42;;;;;;;;;;5091580;28;20315;-51
2024/04/07 02:34:36;;;;;;;1.25;1.00;;;;;;;;;;5091972;28;20669;-51
2024/04/07 02:37:03;;;;;;;1.10;1.00;;;;;;;;;;5083756;28;20585;-51
2024/04/07 02:39:30;;;;;;;1.20;1.10;;;;;;;;;;5079792;28;20205;-55
2024/04/07 02:41:57;;;;;;;0.80;0.80;;;;;;;;;;5087306;28;20252;-54
2024/04/07 02:48:04;;;;;;;1.10;1.10;;;;;;;;;;5083356;28;20208;-54
2024/04/07 02:50:03;;;;;;;1.30;1.20;;;;;;;;;;5082863;28;20227;-54
2024/04/07 02:52:31;;;;;;;1.35;1.25;;;;;;;;;;5066875;28;20277;-51
2024/04/07 02:54:58;;;;;;;1.30;1.00;;;;;;;;;;5075965;28;20200;-54
2024/04/07 02:57:25;;;;;;;1.20;1.10;;;;;;;;;;5074031;28;20222;-49
2024/04/07 02:59:52;;;;;;;1.20;1.10;;;;;;;;;;5091360;28;20205;-56
2024/04/07 03:02:21;;;;;;;1.23;1.15;;;;;;;;;;5089392;28;20228;-55
2024/04/07 03:04:48;;;;;;;1.42;1.33;;;;;;;;;;5071430;28;20272;-56
2024/04/07 03:07:15;;;;;;;1.50;1.40;;;;;;;;;;5087504;28;20208;-55
2024/04/07 03:09:42;;;;;;;1.08;1.00;;;;;;;;;;5068002;28;20745;-55
2024/04/07 03:12:10;;;;;;;0.93;0.93;;;;;;;;;;5073907;28;20310;-56
2024/04/07 03:14:36;;;;;;;1.05;1.05;;;;;;;;;;5075914;28;20212;-55
2024/04/07 03:17:04;;;;;;;1.25;1.15;;;;;;;;;;5073741;28;20211;-52
2024/04/07 03:19:32;;;;;;;1.10;1.10;;;;;;;;;;5079635;28;20666;-53
2024/04/07 03:22:00;;;;;;;1.25;1.13;;;;;;;;;;5079540;28;20220;-54
2024/04/07 03:24:29;;;;;;;1.27;1.20;;;;;;;;;;5074896;28;20303;-52
2024/04/07 03:26:56;;;;;;;4.00;1.08;;;;;;;;;;5089350;28;20671;-51
2024/04/07 03:29:23;;;;;;;1.38;1.27;;;;;;;;;;5081965;28;20199;-54
2024/04/07 03:31:50;;;;;;;1.55;1.45;;;;;;;;;;5088842;28;20222;-54
2024/04/07 03:34:17;;;;;;;1.33;1.23;;;;;;;;;;5087701;28;20199;-54
2024/04/07 03:36:45;;;;;;;1.30;1.20;;;;;;;;;;5088751;28;20204;-50
2024/04/07 03:39:13;;;;;;;1.42;1.33;;;;;;;;;;5086760;28;20578;-54
2024/04/07 03:41:41;;;;;;;0.90;0.90;;;;;;;;;;5083158;28;20230;-52
2024/04/07 03:44:08;;;;;;;1.38;0.90;;;;;;;;;;5087844;28;20273;-50
2024/04/07 03:46:37;;;;;;;3.03;0.90;;;;;;;;;;5087973;28;20202;-52
2024/04/07 03:49:05;;;;;;;1.35;1.20;;;;;;;;;;5085388;28;20230;-54
2024/04/07 03:51:32;;;;;;;1.00;1.00;;;;;;;;;;5088848;28;20220;-51
2024/04/07 03:54:01;;;;;;;2.40;1.05;;;;;;;;;;5088742;28;20646;-52
2024/04/07 03:56:28;;;;;;;1.77;0.98;;;;;;;;;;5086487;28;20678;-53
2024/04/07 03:58:56;;;;;;;0.90;0.90;;;;;;;;;;5085070;28;20193;-55
2024/04/07 04:01:22;;;;;;;1.02;1.00;;;;;;;;;;5080618;28;20222;-56
2024/04/07 04:03:50;;;;;;;1.52;1.20;;;;;;;;;;5089406;28;20303;-56
2024/04/07 04:06:16;;;;;;;0.90;0.90;;;;;;;;;;5084001;28;20281;-56
2024/04/07 04:08:46;;;;;;;1.05;0.95;;;;;;;;;;5087962;28;20196;-51
2024/04/07 04:11:14;;;;;;;1.25;1.15;;;;;;;;;;5084319;28;20229;-56
2024/04/07 04:13:43;;;;;;;1.25;1.15;;;;;;;;;;5081340;28;20193;-56
2024/04/07 04:16:10;;;;;;;1.38;1.35;;;;;;;;;;5089609;28;20200;-55
2024/04/07 04:18:37;;;;;;;3.63;1.40;;;;;;;;;;5081417;28;20612;-52
2024/04/07 04:21:08;;;;;;;1.05;1.02;;;;;;;;;;5089096;28;20402;-51
2024/04/07 04:23:35;;;;;;;1.88;1.20;;;;;;;;;;5066852;28;20232;-56
2024/04/07 04:26:02;;;;;;;1.10;1.00;;;;;;;;;;5090192;28;20655;-51
2024/04/07 04:28:31;;;;;;;1.33;1.23;;;;;;;;;;5078911;28;20197;-55
2024/04/07 04:31:01;;;;;;;1.20;1.10;;;;;;;;;;5082253;28;20257;-56
2024/04/07 04:33:29;;;;;;;1.52;1.05;;;;;;;;;;5089603;28;20562;-55
2024/04/07 04:35:55;;;;;;;0.65;0.65;;;;;;;;;;5090225;28;20667;-53
2024/04/07 04:38:23;;;;;;;0.82;0.82;;;;;;;;;;5083245;28;20200;-55
2024/04/07 04:40:53;;;;;;;1.05;1.00;;;;;;;;;;5073395;28;20598;-55
2024/04/07 04:43:21;;;;;;;1.25;1.10;;;;;;;;;;5092378;28;20307;-55
2024/04/07 04:46:00;;;;;;;1.20;1.20;;;;;;;;;;5079566;28;20212;-52
2024/04/07 04:48:28;;;;;;;0.90;0.90;;;;;;;;;;5066643;28;20226;-56
2024/04/07 04:50:55;;;;;;;0.80;0.80;;;;;;;;;;5080395;28;20223;-56
2024/04/07 04:53:23;;;;;;;1.30;1.20;;;;;;;;;;5082108;28;20203;-56
2024/04/07 04:55:50;;;;;;;1.60;1.30;;;;;;;;;;5082313;28;20200;-53
2024/04/07 04:58:17;;;;;;;1.25;1.20;;;;;;;;;;5075247;28;20205;-54
2024/04/07 05:00:44;;;;;;;1.83;1.20;;;;;;;;;;5087795;28;20201;-52
2024/04/07 05:03:14;;;;;;;2.50;1.13;;;;;;;;;;5074658;28;20200;-53
2024/04/07 05:05:40;;;;;;;1.33;1.02;;;;;;;;;;5079632;28;20209;-52
2024/04/07 05:08:08;;;;;;;0.90;0.90;;;;;;;;;;5082507;28;20200;-51
2024/04/07 05:10:35;;;;;;;0.98;0.98;;;;;;;;;;5085833;28;20581;-57
2024/04/07 05:13:02;;;;;;;1.40;1.30;;;;;;;;;;5075353;28;20202;-56
2024/04/07 05:15:29;;;;;;;1.00;1.00;;;;;;;;;;5085249;28;20192;-55
2024/04/07 05:17:56;;;;;;;1.60;1.50;;;;;;;;;;5093520;28;20708;-55
2024/04/07 05:20:24;;;;;;;1.33;1.23;;;;;;;;;;5077087;28;20298;-53
2024/04/07 05:22:52;;;;;;;1.55;1.15;;;;;;;;;;5084610;28;20220;-52
2024/04/07 05:25:19;;;;;;;1.10;1.10;;;;;;;;;;5083672;28;20229;-51
2024/04/07 05:27:47;;;;;;;1.45;1.17;;;;;;;;;;5076004;28;20220;-52
2024/04/07 05:30:14;;;;;;;1.08;1.08;;;;;;;;;;5074979;28;20205;-51
2024/04/07 05:32:41;;;;;;;1.33;1.10;;;;;;;;;;5072510;28;20309;-51
2024/04/07 05:35:08;;;;;;;1.13;0.88;;;;;;;;;;5082111;28;20204;-55
2024/04/07 05:37:37;;;;;;;1.38;1.38;;;;;;;;;;5080558;28;20205;-51
2024/04/07 05:40:05;;;;;;;0.90;0.90;;;;;;;;;;5072913;28;20212;-55
2024/04/07 05:42:32;;;;;;;1.05;1.00;;;;;;;;;;5081099;28;20231;-55
2024/04/07 05:44:59;;;;;;;1.33;1.23;;;;;;;;;;5080757;28;20228;-56
2024/04/07 05:47:26;;;;;;;1.73;1.63;;;;;;;;;;5072773;28;20201;-55
2024/04/07 05:49:53;;;;;;;1.25;1.20;;;;;;;;;;5080362;28;20205;-55
2024/04/07 05:52:21;;;;;;;1.50;1.30;;;;;;;;;;5088808;28;20307;-52
2024/04/07 05:54:49;;;;;;;1.48;1.30;;;;;;;;;;5078601;28;20204;-52
2024/04/07 05:57:17;;;;;;;1.10;1.10;;;;;;;;;;5082053;28;20200;-53
2024/04/07 05:59:46;;;;;;;1.67;1.00;;;;;;;;;;5090751;28;20196;-50
2024/04/07 06:02:13;;;;;;;3.20;1.30;;;;;;;;;;5075365;28;20217;-53
2024/04/07 06:04:39;;;;;;;1.05;1.05;;;;;;;;;;5087034;28;20587;-49
2024/04/07 06:07:08;;;;;;;1.52;1.42;;;;;;;;;;5088619;28;20663;-50
2024/04/07 06:09:35;;;;;;;0.98;0.98;;;;;;;;;;5091250;28;20204;-51
2024/04/07 06:12:04;;;;;;;0.90;0.90;;;;;;;;;;5090902;28;20222;-53
2024/04/07 06:14:31;;;;;;;1.75;0.80;;;;;;;;;;5076048;28;20200;-53
2024/04/07 06:16:59;;;;;;;1.48;0.80;;;;;;;;;;5091146;28;20235;-52
2024/04/07 06:19:25;;;;;;;1.38;1.20;;;;;;;;;;5090620;28;20279;-54
2024/04/07 06:21:52;;;;;;;1.15;1.05;;;;;;;;;;5090884;28;20223;-51
2024/04/07 06:24:19;;;;;;;2.83;1.42;;;;;;;;;;5090992;28;20615;-54
2024/04/07 06:26:47;;;;;;;1.30;1.20;;;;;;;;;;5091847;28;20208;-52
2024/04/07 06:29:15;;;;;;;2.45;1.33;;;;;;;;;;5090588;28;20204;-49
2024/04/07 06:31:42;;;;;;;2.10;1.40;;;;;;;;;;5090554;28;20212;-51
2024/04/07 06:34:08;;;;;;;7.15;2.60;;;;;;;;;;5090823;28;20800;-53
2024/04/07 06:36:36;;;;;;;1.88;1.70;;;;;;;;;;5090575;28;20207;-53
2024/04/07 06:39:03;;;;;;;1.63;1.30;;;;;;;;;;5075601;28;20209;-53
2024/04/07 06:41:30;;;;;;;2.58;1.58;;;;;;;;;;5079655;28;20223;-54
2024/04/07 06:43:56;;;;;;;3.45;2.28;;;;;;;;;;5079666;28;20204;-56
2024/04/07 06:46:25;;;;;;;4.20;1.77;;;;;;;;;;5090072;28;20290;-57
2024/04/07 06:48:52;;;;;;;1.98;1.70;;;;;;;;;;5082986;28;20200;-56
2024/04/07 06:51:19;;;;;;;2.10;1.70;;;;;;;;;;5091602;28;20230;-53
2024/04/07 06:53:46;;;;;;;3.00;1.80;;;;;;;;;;5090894;28;20207;-56
2024/04/07 06:56:14;;;;;;;2.95;1.90;;;;;;;;;;5083312;28;20220;-56
2024/04/07 06:58:41;;;;;;;4.03;1.80;;;;;;;;;;5088500;28;20203;-53
2024/04/07 07:01:09;;;;;;;2.25;1.58;;;;;;;;;;5073769;28;20216;-52
2024/04/07 07:03:36;;;;;;;2.20;1.52;;;;;;;;;;5071783;28;20208;-55
2024/04/07 07:06:04;;;;;;;2.30;1.83;;;;;;;;;;5087633;28;20223;-52
2024/04/07 07:08:31;;;;;;;2.42;1.48;;;;;;;;;;5071398;28;20197;-50
2024/04/07 07:11:00;;;;;;;2.78;1.60;;;;;;;;;;5070862;28;20217;-56
2024/04/07 07:13:27;;;;;;;1.88;1.52;;;;;;;;;;5082632;28;20215;-52
2024/04/07 07:15:55;;;;;;;5.53;2.50;;;;;;;;;;5084292;28;20279;-55
2024/04/07 07:18:22;;;;;;;1.42;1.33;;;;;;;;;;5079553;28;20200;-56
2024/04/07 07:20:51;;;;;;;2.80;1.55;;;;;;;;;;5079420;28;20590;-54
2024/04/07 07:23:18;;;;;;;2.83;1.70;;;;;;;;;;5081439;28;20200;-55
2024/04/07 07:25:45;;;;;;;2.92;1.63;;;;;;;;;;5085619;28;20608;-56
2024/04/07 07:28:12;;;;;;;2.83;1.85;;;;;;;;;;5078959;28;20309;-54
2024/04/07 07:30:39;;;;;;;4.90;2.03;;;;;;;;;;5070784;28;20202;-54
2024/04/07 07:33:06;;;;;;;3.70;1.90;;;;;;;;;;5071080;28;20201;-54
2024/04/07 07:35:34;;;;;;;1.65;1.55;;;;;;;;;;5090740;28;20196;-55
2024/04/07 07:38:02;;;;;;;2.60;1.83;;;;;;;;;;5087125;28;20568;-51
2024/04/07 07:40:30;;;;;;;1.52;1.42;;;;;;;;;;5094909;28;20251;-54
2024/04/07 07:42:56;;;;;;;3.13;2.03;;;;;;;;;;5094728;28;20226;-56
2024/04/07 07:45:24;;;;;;;2.33;1.67;;;;;;;;;;5083303;28;20224;-53
2024/04/07 07:47:53;;;;;;;3.63;1.50;;;;;;;;;;5089384;28;20203;-56
2024/04/07 07:50:20;;;;;;;4.65;2.13;;;;;;;;;;5086395;28;20212;-57
2024/04/07 07:52:47;;;;;;;2.08;1.42;;;;;;;;;;5080571;28;20589;-54
2024/04/07 07:55:16;;;;;;;2.28;1.88;;;;;;;;;;5092778;28;20200;-57
2024/04/07 07:57:42;;;;;;;1.40;1.30;;;;;;;;;;5092862;28;20210;-56
2024/04/07 08:00:12;;;;;;;1.90;1.48;;;;;;;;;;5082518;28;20207;-54
2024/04/07 08:02:39;;;;;;;2.85;2.00;;;;;;;;;;5078975;28;20232;-55
2024/04/07 08:05:07;;;;;;;1.20;1.10;;;;;;;;;;5085797;28;20240;-52
2024/04/07 08:07:34;;;;;;;2.15;1.45;;;;;;;;;;5082854;28;20687;-51
2024/04/07 08:10:03;;;;;;;1.20;1.10;;;;;;;;;;5074554;28;20216;-55
2024/04/07 08:12:31;;;;;;;2.92;1.33;;;;;;;;;;5074684;28;20594;-51
2024/04/07 08:14:58;;;;;;;1.75;1.40;;;;;;;;;;5089944;28;20254;-53
2024/04/07 08:17:26;;;;;;;2.97;2.65;;;;;;;;;;5074783;28;20223;-50
2024/04/07 08:19:53;;;;;;;4.15;1.80;;;;;;;;;;5074462;28;20574;-51
2024/04/07 08:22:20;;;;;;;5.78;1.52;;;;;;;;;;5073779;28;20295;-54
2024/04/07 08:24:48;;;;;;;1.55;1.45;;;;;;;;;;5065527;28;20211;-53
2024/04/07 08:27:16;;;;;;;2.22;1.40;;;;;;;;;;5073980;28;20207;-53
2024/04/07 08:29:45;;;;;;;2.70;1.65;;;;;;;;;;5079541;28;20246;-54
2024/04/07 08:32:12;;;;;;;5.07;1.60;;;;;;;;;;5086049;28;20228;-55
2024/04/07 08:34:39;;;;;;;1.15;1.15;;;;;;;;;;5084932;28;20705;-52
2024/04/07 08:37:08;;;;;;;1.65;1.45;;;;;;;;;;5070608;28;20567;-53
2024/04/07 08:39:34;;;;;;;1.65;1.50;;;;;;;;;;5078538;28;20204;-52
2024/04/07 08:42:03;;;;;;;2.58;1.45;;;;;;;;;;5094331;28;20216;-52
2024/04/07 08:44:31;;;;;;;2.42;1.58;;;;;;;;;;5054180;28;20284;-55
2024/04/07 08:47:00;;;;;;;1.63;1.33;;;;;;;;;;5053850;28;20416;-54
2024/04/07 08:49:27;;;;;;;3.83;1.50;;;;;;;;;;5052875;28;20665;-54
2024/04/07 08:51:55;;;;;;;2.67;2.28;;;;;;;;;;5067700;28;20220;-50
2024/04/07 08:54:21;;;;;;;2.88;1.88;;;;;;;;;;5085498;28;20208;-53
2024/04/07 08:56:50;;;;;;;4.28;2.05;;;;;;;;;;5093268;28;20246;-56
2024/04/07 08:59:20;;;;;;;4.13;1.70;;;;;;;;;;5075234;28;20202;-54
2024/04/07 09:01:48;;;;;;;2.17;1.20;;;;;;;;;;5088076;28;20578;-54
2024/04/07 09:04:16;;;;;;;1.25;1.15;;;;;;;;;;5075411;28;20199;-55
2024/04/07 09:06:45;;;;;;;1.55;1.05;;;;;;;;;;5078978;28;20683;-51
2024/04/07 09:09:12;;;;;;;1.48;1.20;;;;;;;;;;5084048;28;20204;-50
2024/04/07 09:11:39;;;;;;;1.65;1.27;;;;;;;;;;5072991;28;20614;-50
2024/04/07 09:14:06;;;;;;;2.95;1.70;;;;;;;;;;5090193;28;20208;-51
2024/04/07 09:16:34;;;;;;;1.88;1.77;;;;;;;;;;5081006;28;20227;-50
2024/04/07 09:19:00;;;;;;;2.15;1.80;;;;;;;;;;5073415;28;20227;-49
2024/04/07 09:21:29;;;;;;;1.80;1.45;;;;;;;;;;5081048;28;20220;-51
2024/04/07 09:23:56;;;;;;;4.00;1.45;;;;;;;;;;5073097;28;20566;-50
2024/04/07 09:26:23;;;;;;;1.67;1.30;;;;;;;;;;5062138;28;20225;-51
2024/04/07 09:28:50;;;;;;;2.92;1.52;;;;;;;;;;5075909;28;20215;-52
2024/04/07 09:31:18;;;;;;;2.25;1.50;;;;;;;;;;5072918;28;20391;-55
2024/04/07 09:33:47;;;;;;;1.55;1.42;;;;;;;;;;5073226;28;20568;-56
2024/04/07 09:36:15;;;;;;;2.58;1.42;;;;;;;;;;5073027;28;20246;-54
2024/04/07 09:38:43;;;;;;;2.58;2.05;;;;;;;;;;5073128;28;20200;-53
2024/04/07 09:41:12;;;;;;;2.88;1.58;;;;;;;;;;5081524;28;20224;-54
2024/04/07 09:43:40;;;;;;;1.55;1.40;;;;;;;;;;5079715;28;20219;-50
2024/04/07 09:46:07;;;;;;;2.17;1.30;;;;;;;;;;5088994;28;20311;-53
2024/04/07 09:48:34;;;;;;;1.27;1.17;;;;;;;;;;5088539;28;20655;-54
2024/04/07 09:51:06;;;;;;;3.10;1.83;;;;;;;;;;5072643;28;20225;-52
2024/04/07 09:53:39;;;;;;;2.22;1.42;;;;;;;;;;5063876;28;20284;-53
2024/04/07 09:56:13;;;;;;;2.17;1.80;;;;;;;;;;5080477;28;20647;-53
2024/04/07 09:58:40;;;;;;;1.95;1.38;;;;;;;;;;5077039;28;20275;-51
2024/04/07 10:01:08;;;;;;;1.40;1.23;;;;;;;;;;5071691;28;20229;-51
2024/04/07 10:03:34;;;;;;;1.52;1.30;;;;;;;;;;5072159;28;20197;-52
2024/04/07 10:06:03;;;;;;;2.97;1.42;;;;;;;;;;5071911;28;20327;-54
2024/04/07 10:08:30;;;;;;;3.60;1.50;;;;;;;;;;5080671;28;20197;-52
2024/04/07 10:10:57;;;;;;;1.58;1.48;;;;;;;;;;5072000;28;20227;-50
2024/04/07 10:13:25;;;;;;;1.17;1.10;;;;;;;;;;5080074;28;20207;-50
2024/04/07 10:15:56;;;;;;;1.33;1.10;;;;;;;;;;5079865;28;20197;-51
2024/04/07 10:18:23;;;;;;;1.50;1.40;;;;;;;;;;5080312;28;20205;-50
2024/04/07 10:20:53;;;;;;;2.65;1.30;;;;;;;;;;5077873;28;20220;-51
2024/04/07 10:23:20;;;;;;;3.88;2.22;;;;;;;;;;5075308;28;20208;-51
2024/04/07 10:25:48;;;;;;;2.25;1.48;;;;;;;;;;5086020;28;20205;-54
2024/04/07 10:28:15;;;;;;;1.55;1.10;;;;;;;;;;5083586;28;20196;-51
2024/04/07 10:30:52;;;;;;;1.75;1.40;;;;;;;;;;5071233;28;20205;-53
2024/04/07 10:33:21;;;;;;;1.52;1.20;;;;;;;;;;5071024;28;20223;-51
2024/04/07 10:35:56;;;;;;;1.30;1.10;;;;;;;;;;5079858;28;20632;-50
2024/04/07 10:38:23;;;;;;;1.73;1.40;;;;;;;;;;5072134;28;20651;-49
2024/04/07 10:40:53;;;;;;;2.17;1.00;;;;;;;;;;5072038;28;20228;-49
2024/04/07 10:43:20;;;;;;;3.22;1.70;;;;;;;;;;5071768;28;20197;-52
2024/04/07 10:45:47;;;;;;;2.75;1.50;;;;;;;;;;5071882;28;20209;-50
2024/04/07 10:48:15;;;;;;;2.30;1.30;;;;;;;;;;5053861;28;20214;-48
2024/04/07 10:50:43;;;;;;;1.48;1.38;;;;;;;;;;5051551;28;20580;-48
2024/04/07 10:53:13;;;;;;;1.80;1.35;;;;;;;;;;5076950;28;20265;-48
2024/04/07 10:55:41;;;;;;;2.78;1.88;;;;;;;;;;5071178;28;20193;-50
2024/04/07 10:58:07;;;;;;;1.80;1.50;;;;;;;;;;5071558;28;20193;-50
2024/04/07 11:00:35;;;;;;;1.77;1.40;;;;;;;;;;5071379;28;20193;-48
2024/04/07 11:03:02;;;;;;;1.85;1.67;;;;;;;;;;5071571;28;20197;-50
2024/04/07 11:05:30;;;;;;;2.50;1.75;;;;;;;;;;5051434;28;20229;-48
2024/04/07 11:07:57;;;;;;;1.50;1.40;;;;;;;;;;5082526;28;20273;-50
2024/04/07 11:10:24;;;;;;;2.25;1.48;;;;;;;;;;5091278;28;20557;-50
2024/04/07 11:12:51;;;;;;;5.57;1.50;;;;;;;;;;5091534;28;20721;-49
2024/04/07 11:15:21;;;;;;;1.70;1.58;;;;;;;;;;5091334;28;20203;-51
2024/04/07 11:17:47;;;;;;;2.08;1.35;;;;;;;;;;5092084;28;20200;-49
2024/04/07 11:20:15;;;;;;;1.75;1.60;;;;;;;;;;5073584;28;20201;-50
2024/04/07 11:22:43;;;;;;;2.17;1.60;;;;;;;;;;5071074;28;20217;-50
2024/04/07 11:25:10;;;;;;;2.08;1.08;;;;;;;;;;5080244;28;20232;-49
2024/04/07 11:27:37;;;;;;;2.25;1.60;;;;;;;;;;5078760;28;20220;-50
2024/04/07 11:30:05;;;;;;;3.30;1.38;;;;;;;;;;5070769;28;20232;-49
2024/04/07 11:32:32;;;;;;;1.20;1.10;;;;;;;;;;5071046;28;20287;-51
2024/04/07 11:34:59;;;;;;;1.17;1.00;;;;;;;;;;5070885;28;20201;-49
2024/04/07 11:37:26;;;;;;;1.20;1.10;;;;;;;;;;5070981;28;20197;-48
2024/04/07 11:39:54;;;;;;;1.30;1.20;;;;;;;;;;5071138;28;20228;-48
2024/04/07 11:42:22;;;;;;;1.63;1.45;;;;;;;;;;5070823;28;20292;-51
2024/04/07 11:44:49;;;;;;;1.40;1.30;;;;;;;;;;5071228;28;20203;-48
2024/04/07 11:47:16;;;;;;;1.80;1.20;;;;;;;;;;5071361;28;20228;-50
2024/04/07 11:49:45;;;;;;;1.20;1.10;;;;;;;;;;5070609;28;20593;-49
2024/04/07 11:52:12;;;;;;;1.10;1.05;;;;;;;;;;5071152;28;20243;-51
2024/04/07 11:54:40;;;;;;;2.40;1.20;;;;;;;;;;5071466;28;20693;-50
2024/04/07 11:57:08;;;;;;;1.77;1.30;;;;;;;;;;5071197;28;20201;-51
2024/04/07 11:59:35;;;;;;;1.45;1.30;;;;;;;;;;5071153;28;20201;-53
2024/04/07 12:02:01;;;;;;;1.38;1.27;;;;;;;;;;5070673;28;20700;-49
2024/04/07 12:04:29;;;;;;;1.35;1.20;;;;;;;;;;5070895;28;20205;-49
2024/04/07 12:06:58;;;;;;;1.30;1.17;;;;;;;;;;5070998;28;20292;-50
2024/04/07 12:09:25;;;;;;;1.77;1.20;;;;;;;;;;5071166;28;20233;-49
2024/04/07 12:11:51;;;;;;;1.75;1.40;;;;;;;;;;5070937;28;20228;-49
2024/04/07 12:14:20;;;;;;;1.08;1.08;;;;;;;;;;5070405;28;20289;-50
2024/04/07 12:16:47;;;;;;;1.00;1.00;;;;;;;;;;5070661;28;20578;-50
2024/04/07 12:19:14;;;;;;;1.77;1.00;;;;;;;;;;5070806;28;20197;-48
2024/04/07 12:21:40;;;;;;;0.85;0.85;;;;;;;;;;5075289;28;20232;-50
2024/04/07 12:24:08;;;;;;;2.67;1.70;;;;;;;;;;5094636;28;20231;-52
2024/04/07 12:26:35;;;;;;;1.52;1.20;;;;;;;;;;5094998;28;20206;-50
2024/04/07 12:29:02;;;;;;;1.95;1.40;;;;;;;;;;5094265;28;20717;-49
2024/04/07 12:31:30;;;;;;;1.70;1.40;;;;;;;;;;5094318;28;20220;-54
2024/04/07 12:33:57;;;;;;;3.67;1.40;;;;;;;;;;5094474;28;20203;-51
2024/04/07 12:36:24;;;;;;;1.52;1.23;;;;;;;;;;5094240;28;20196;-52
2024/04/07 12:38:51;;;;;;;2.78;1.20;;;;;;;;;;5094743;28;20643;-50
2024/04/07 12:41:18;;;;;;;2.50;1.40;;;;;;;;;;5084275;28;20252;-51
2024/04/07 12:43:45;;;;;;;3.20;1.63;;;;;;;;;;5073789;28;20229;-49
2024/04/07 12:46:12;;;;;;;2.15;1.55;;;;;;;;;;5074328;28;20202;-49
2024/04/07 12:48:40;;;;;;;3.28;1.40;;;;;;;;;;5078195;28;20230;-48
2024/04/07 12:51:07;;;;;;;2.58;1.50;;;;;;;;;;5093949;28;20224;-48
2024/04/07 12:53:34;;;;;;;1.52;1.30;;;;;;;;;;5090289;28;20199;-52
2024/04/07 12:56:01;;;;;;;4.20;1.52;;;;;;;;;;5073873;28;20201;-55
2024/04/07 12:58:28;;;;;;;1.92;1.50;;;;;;;;;;5081011;28;20203;-52
2024/04/07 13:00:55;;;;;;;1.73;1.33;;;;;;;;;;5087137;28;20591;-50
2024/04/07 13:03:23;;;;;;;1.17;1.05;;;;;;;;;;5074259;28;20414;-52
2024/04/07 13:05:52;;;;;;;1.48;1.38;;;;;;;;;;5073997;28;20192;-51
2024/04/07 13:08:19;;;;;;;5.03;2.00;;;;;;;;;;5082578;28;20270;-55
2024/04/07 13:10:46;;;;;;;2.05;1.45;;;;;;;;;;5079609;28;20257;-53
2024/04/07 13:13:13;;;;;;;2.92;1.33;;;;;;;;;;5077043;28;20201;-57
2024/04/07 13:15:40;;;;;;;4.32;1.40;;;;;;;;;;5088721;28;20193;-52
2024/04/07 13:18:08;;;;;;;2.35;1.42;;;;;;;;;;5074035;28;20207;-53
2024/04/07 13:20:36;;;;;;;1.13;1.05;;;;;;;;;;5081714;28;20282;-54
2024/04/07 13:23:05;;;;;;;1.80;1.60;;;;;;;;;;5081538;28;20671;-52
2024/04/07 13:25:32;;;;;;;1.42;1.33;;;;;;;;;;5073647;28;20675;-52
2024/04/07 13:27:59;;;;;;;2.53;1.40;;;;;;;;;;5088263;28;20677;-52
2024/04/07 13:30:25;;;;;;;3.03;1.20;;;;;;;;;;5082611;28;20640;-55
2024/04/07 13:32:53;;;;;;;1.40;1.30;;;;;;;;;;5073421;28;20585;-52
2024/04/07 13:35:19;;;;;;;1.83;1.55;;;;;;;;;;5073278;28;20670;-51
2024/04/07 13:37:47;;;;;;;0.95;0.90;;;;;;;;;;5073327;28;20204;-50
2024/04/07 13:40:15;;;;;;;1.67;1.30;;;;;;;;;;5072743;28;20300;-51
2024/04/07 13:42:44;;;;;;;4.60;1.83;;;;;;;;;;5072844;28;20241;-53
2024/04/07 13:45:11;;;;;;;1.50;1.17;;;;;;;;;;5073507;28;20640;-56
2024/04/07 13:47:38;;;;;;;1.35;1.20;;;;;;;;;;5084558;28;20291;-51
2024/04/07 13:50:07;;;;;;;1.58;1.35;;;;;;;;;;5083678;28;20300;-53
2024/04/07 13:52:35;;;;;;;1.33;1.08;;;;;;;;;;5084867;28;20220;-51
2024/04/07 13:55:01;;;;;;;1.65;1.08;;;;;;;;;;5093243;28;20197;-52
2024/04/07 13:57:31;;;;;;;2.65;1.40;;;;;;;;;;5073180;28;20235;-52
2024/04/07 13:59:58;;;;;;;1.35;1.27;;;;;;;;;;5072952;28;20563;-53
2024/04/07 14:02:25;;;;;;;3.08;1.80;;;;;;;;;;5072437;28;20307;-51
2024/04/07 14:04:52;;;;;;;1.48;1.38;;;;;;;;;;5057355;28;20216;-50
2024/04/07 14:07:19;;;;;;;1.73;1.23;;;;;;;;;;5080700;28;20567;-49
2024/04/07 14:09:46;;;;;;;1.42;1.13;;;;;;;;;;5092898;28;20227;-50
2024/04/07 14:12:13;;;;;;;2.53;1.70;;;;;;;;;;5082964;28;20223;-49
2024/04/07 14:14:43;;;;;;;3.42;1.90;;;;;;;;;;5060380;28;20190;-53
2024/04/07 14:17:11;;;;;;;1.73;1.45;;;;;;;;;;5076447;28;20211;-52
2024/04/07 14:19:39;;;;;;;6.63;6.03;;;;;;;;;;5071874;28;20656;-53
2024/04/07 14:22:07;;;;;;;6.82;5.13;;;;;;;;;;5080375;28;20288;-52
2024/04/07 14:24:33;;;;;;;7.47;4.70;;;;;;;;;;5089355;28;20209;-53
2024/04/07 14:27:02;;;;;;;9.48;7.85;;;;;;;;;;5071829;28;20229;-52
2024/04/07 14:29:28;;;;;;;16.80;15.02;;;;;;;;;;5072084;28;20231;-50
2024/04/07 14:31:57;;;;;;;11.10;9.25;;;;;;;;;;5086374;28;20311;-52
2024/04/07 14:34:23;;;;;;;10.05;7.18;;;;;;;;;;5073099;28;20305;-51
2024/04/07 14:36:51;;;;;;;8.77;5.57;;;;;;;;;;5071673;28;20647;-52
2024/04/07 14:39:18;;;;;;;5.35;3.88;;;;;;;;;;5073151;28;20288;-54
2024/04/07 14:41:46;;;;;;;2.88;2.17;;;;;;;;;;5091617;28;20310;-50
2024/04/07 14:44:12;;;;;;;2.10;1.85;;;;;;;;;;5075110;28;20735;-51
2024/04/07 14:46:40;;;;;;;1.98;1.65;;;;;;;;;;5071033;28;20224;-50
2024/04/07 14:49:13;;;;;;;3.15;1.35;;;;;;;;;;5071792;28;20747;-50